Time,TemperatureF,DewpointF,PressureIn,WindDirection,WindDirectionDegrees,WindSpeedMPH,WindSpeedGustMPH,Humidity,HourlyPrecipIn,Conditions,Clouds,dailyrainin,SoftwareType,DateUTC
2013-01-17 00:04:00,66.3,62.0,29.96,South,180,11.0,14.0,86,0.00,,,0.00,Wunderground v.1.15,2013-01-17 05:04:00,
2013-01-17 00:09:00,66.5,62.2,29.96,South,174,12.0,16.0,86,0.00,,,0.00,Wunderground v.1.15,2013-01-17 05:09:00,
2013-01-17 00:19:00,66.4,62.1,29.96,South,178,14.0,15.0,86,0.00,,,0.00,Wunderground v.1.15,2013-01-17 05:19:00,
2013-01-17 00:24:00,66.2,61.9,29.96,SSE,164,13.0,15.0,86,0.00,,,0.00,Wunderground v.1.15,2013-01-17 05:24:00,
2013-01-17 00:29:00,66.0,62.0,29.96,SSE,149,11.0,12.0,87,0.00,,,0.00,Wunderground v.1.15,2013-01-17 05:29:00,
2013-01-17 00:34:00,66.1,62.4,29.96,SSE,168,11.0,15.0,88,0.00,,,0.00,Wunderground v.1.15,2013-01-17 05:34:00,
2013-01-17 00:44:00,65.9,62.2,29.96,SSW,194,13.0,13.0,88,0.00,,,0.00,Wunderground v.1.15,2013-01-17 05:44:00,
2013-01-17 00:49:00,65.9,62.2,29.96,SSE,158,11.0,11.0,88,0.00,,,0.00,Wunderground v.1.15,2013-01-17 05:49:00,
2013-01-17 00:59:00,66.4,62.4,29.96,South,169,13.0,13.0,87,0.00,,,0.00,Wunderground v.1.15,2013-01-17 05:59:00,
2013-01-17 01:04:00,66.2,62.2,29.96,South,171,14.0,15.0,87,0.00,,,0.00,Wunderground v.1.15,2013-01-17 06:04:00,
2013-01-17 01:09:00,66.4,62.4,29.96,SSE,161,15.0,15.0,87,0.00,,,0.00,Wunderground v.1.15,2013-01-17 06:09:00,
2013-01-17 01:15:00,66.4,62.4,29.96,SSW,192,14.0,15.0,87,0.00,,,0.00,Wunderground v.1.15,2013-01-17 06:15:00,
2013-01-17 01:20:00,66.4,62.4,29.96,South,177,13.0,16.0,87,0.00,,,0.00,Wunderground v.1.15,2013-01-17 06:20:00,
2013-01-17 01:25:00,66.4,62.4,29.96,South,183,13.0,16.0,87,0.00,,,0.00,Wunderground v.1.15,2013-01-17 06:25:00,
2013-01-17 01:35:00,66.4,62.4,29.96,SSE,167,13.0,13.0,87,0.00,,,0.00,Wunderground v.1.15,2013-01-17 06:35:00,
2013-01-17 01:40:00,66.3,62.3,29.96,SSE,164,13.0,13.0,87,0.00,,,0.00,Wunderground v.1.15,2013-01-17 06:40:00,
2013-01-17 01:50:00,66.1,62.4,29.96,South,181,11.0,11.0,88,0.00,,,0.00,Wunderground v.1.15,2013-01-17 06:50:00,
2013-01-17 02:00:00,65.9,62.2,29.96,ESE,118,8.0,9.0,88,0.00,,,0.00,Wunderground v.1.15,2013-01-17 07:00:00,
2013-01-17 02:05:00,65.9,62.2,29.96,SSE,168,7.0,9.0,88,0.00,,,0.00,Wunderground v.1.15,2013-01-17 07:05:00,
2013-01-17 02:15:00,65.9,62.2,29.96,SSE,166,8.0,8.0,88,0.00,,,0.00,Wunderground v.1.15,2013-01-17 07:15:00,
2013-01-17 02:20:00,65.7,62.4,29.96,South,187,8.0,8.0,89,0.00,,,0.00,Wunderground v.1.15,2013-01-17 07:20:00,
2013-01-17 02:30:00,65.0,61.7,29.96,South,172,7.0,7.0,89,0.00,,,0.00,Wunderground v.1.15,2013-01-17 07:30:00,
2013-01-17 02:40:00,64.6,61.6,29.96,SSE,156,7.0,7.0,90,0.00,,,0.00,Wunderground v.1.15,2013-01-17 07:40:00,
2013-01-17 02:45:00,64.4,61.4,29.96,SSE,153,6.0,7.0,90,0.00,,,0.00,Wunderground v.1.15,2013-01-17 07:45:00,
2013-01-17 02:55:00,63.7,61.0,29.95,South,172,4.0,5.0,91,0.00,,,0.00,Wunderground v.1.15,2013-01-17 07:55:00,
2013-01-17 03:05:00,63.3,60.9,29.95,SSE,147,4.0,4.0,92,0.00,,,0.00,Wunderground v.1.15,2013-01-17 08:05:00,
2013-01-17 03:10:00,63.2,60.8,29.95,SSE,156,4.0,4.0,92,0.00,,,0.00,Wunderground v.1.15,2013-01-17 08:10:00,
2013-01-17 03:20:00,62.3,60.2,29.95,SE,146,5.0,5.0,93,0.00,,,0.00,Wunderground v.1.15,2013-01-17 08:20:00,
2013-01-17 03:25:00,62.3,60.2,29.95,SSE,152,5.0,6.0,93,0.00,,,0.00,Wunderground v.1.15,2013-01-17 08:25:00,
2013-01-17 03:35:00,62.2,60.2,29.95,SSE,152,5.0,5.0,93,0.00,,,0.00,Wunderground v.1.15,2013-01-17 08:35:00,
2013-01-17 03:40:00,62.2,60.2,29.95,SE,140,5.0,5.0,93,0.00,,,0.00,Wunderground v.1.15,2013-01-17 08:40:00,
2013-01-17 03:50:00,62.1,60.1,29.95,SSE,155,5.0,5.0,93,0.00,,,0.00,Wunderground v.1.15,2013-01-17 08:50:00,
2013-01-17 04:00:00,62.1,60.1,29.94,SSE,164,6.0,6.0,93,0.00,,,0.00,Wunderground v.1.15,2013-01-17 09:00:00,
2013-01-17 04:05:00,62.2,59.8,29.94,SSE,158,6.0,8.0,92,0.00,,,0.00,Wunderground v.1.15,2013-01-17 09:05:00,
2013-01-17 04:10:00,62.2,59.8,29.94,SE,138,6.0,6.0,92,0.00,,,0.00,Wunderground v.1.15,2013-01-17 09:10:00,
2013-01-17 04:20:00,62.1,59.7,29.94,SSE,166,7.0,7.0,92,0.00,,,0.00,Wunderground v.1.15,2013-01-17 09:20:00,
2013-01-17 04:30:00,62.1,59.7,29.93,SSE,154,7.0,7.0,92,0.00,,,0.00,Wunderground v.1.15,2013-01-17 09:30:00,
2013-01-17 04:35:00,62.1,59.7,29.93,SE,145,6.0,7.0,92,0.00,,,0.00,Wunderground v.1.15,2013-01-17 09:35:00,
2013-01-17 04:40:00,62.1,59.7,29.93,SSE,151,6.0,6.0,92,0.00,,,0.00,Wunderground v.1.15,2013-01-17 09:40:00,
2013-01-17 04:50:00,62.0,59.6,29.93,SSE,154,6.0,7.0,92,0.00,,,0.00,Wunderground v.1.15,2013-01-17 09:50:00,
2013-01-17 05:00:00,62.1,59.7,29.93,SSE,163,7.0,7.0,92,0.00,,,0.00,Wunderground v.1.15,2013-01-17 10:00:00,
2013-01-17 05:10:00,62.2,59.8,29.93,SE,143,5.0,5.0,92,0.00,,,0.00,Wunderground v.1.15,2013-01-17 10:10:00,
2013-01-17 05:15:00,62.2,59.8,29.93,SSE,166,5.0,5.0,92,0.00,,,0.00,Wunderground v.1.15,2013-01-17 10:15:00,
2013-01-17 05:20:00,62.2,59.8,29.93,SSE,166,4.0,6.0,92,0.00,,,0.00,Wunderground v.1.15,2013-01-17 10:20:00,
2013-01-17 05:30:00,62.2,59.8,29.93,South,183,4.0,4.0,92,0.00,,,0.00,Wunderground v.1.15,2013-01-17 10:30:00,
2013-01-17 05:40:00,61.9,59.5,29.93,SSE,161,4.0,4.0,92,0.00,,,0.00,Wunderground v.1.15,2013-01-17 10:40:00,
2013-01-17 05:45:00,61.8,59.5,29.93,SSE,154,4.0,4.0,92,0.00,,,0.00,Wunderground v.1.15,2013-01-17 10:45:00,
2013-01-17 05:55:00,61.6,59.6,29.93,SSE,161,3.0,3.0,93,0.00,,,0.00,Wunderground v.1.15,2013-01-17 10:55:00,
2013-01-17 06:00:00,61.5,59.5,29.93,SSE,158,2.0,3.0,93,0.00,,,0.00,Wunderground v.1.15,2013-01-17 11:00:00,
2013-01-17 06:05:00,61.4,59.4,29.94,SSE,155,2.0,3.0,93,0.00,,,0.00,Wunderground v.1.15,2013-01-17 11:05:00,
2013-01-17 06:15:00,61.8,59.8,29.94,SSE,153,3.0,3.0,93,0.00,,,0.00,Wunderground v.1.15,2013-01-17 11:15:00,
2013-01-17 06:25:00,61.9,59.9,29.94,South,177,3.0,4.0,93,0.00,,,0.00,Wunderground v.1.15,2013-01-17 11:25:00,
2013-01-17 06:30:00,62.0,60.0,29.94,SSE,158,3.0,3.0,93,0.00,,,0.00,Wunderground v.1.15,2013-01-17 11:30:00,
2013-01-17 06:40:00,62.1,60.1,29.94,SSE,166,2.0,2.0,93,0.00,,,0.00,Wunderground v.1.15,2013-01-17 11:40:00,
2013-01-17 06:45:00,62.1,60.1,29.95,West,264,2.0,2.0,93,0.00,,,0.00,Wunderground v.1.15,2013-01-17 11:45:00,
2013-01-17 06:55:00,61.7,59.4,29.95,West,264,0.0,0.0,92,0.00,,,0.00,Wunderground v.1.15,2013-01-17 11:55:00,
2013-01-17 07:05:00,61.2,59.2,29.94,West,264,0.0,0.0,93,0.00,,,0.00,Wunderground v.1.15,2013-01-17 12:05:00,
2013-01-17 07:10:00,60.9,58.6,29.95,West,264,0.0,0.0,92,0.00,,,0.00,Wunderground v.1.15,2013-01-17 12:10:00,
2013-01-17 07:20:00,60.5,58.8,29.95,West,264,0.0,0.0,94,0.00,,,0.00,Wunderground v.1.15,2013-01-17 12:20:00,
2013-01-17 07:25:00,60.5,58.8,29.95,West,264,0.0,0.0,94,0.00,,,0.00,Wunderground v.1.15,2013-01-17 12:25:00,
2013-01-17 07:35:00,60.2,58.5,29.95,West,264,0.0,0.0,94,0.00,,,0.00,Wunderground v.1.15,2013-01-17 12:35:00,
2013-01-17 07:45:00,60.8,59.4,29.95,SSE,149,2.0,2.0,95,0.00,,,0.00,Wunderground v.1.15,2013-01-17 12:45:00,
2013-01-17 07:50:00,61.2,59.8,29.95,SSE,149,2.0,2.0,95,0.00,,,0.00,Wunderground v.1.15,2013-01-17 12:50:00,
2013-01-17 07:55:00,61.5,60.1,29.95,SSE,149,2.0,2.0,95,0.00,,,0.00,Wunderground v.1.15,2013-01-17 12:55:00,
2013-01-17 08:05:00,61.9,60.2,29.95,SSE,149,3.0,3.0,94,0.00,,,0.00,Wunderground v.1.15,2013-01-17 13:05:00,
2013-01-17 08:15:00,62.5,60.7,29.95,SSE,153,3.0,5.0,94,0.00,,,0.00,Wunderground v.1.15,2013-01-17 13:15:00,
2013-01-17 08:20:00,62.6,60.8,29.95,SSE,152,3.0,3.0,94,0.00,,,0.00,Wunderground v.1.15,2013-01-17 13:20:00,
2013-01-17 08:30:00,63.1,61.0,29.95,SE,146,4.0,4.0,93,0.00,,,0.00,Wunderground v.1.15,2013-01-17 13:30:00,
2013-01-17 08:40:00,63.6,61.2,29.95,SSE,154,4.0,4.0,92,0.00,,,0.00,Wunderground v.1.15,2013-01-17 13:40:00,
2013-01-17 08:45:00,63.9,61.5,29.95,SSE,154,4.0,4.0,92,0.00,,,0.00,Wunderground v.1.15,2013-01-17 13:45:00,
2013-01-17 08:55:00,64.2,61.5,29.95,SSE,154,3.0,4.0,91,0.00,,,0.00,Wunderground v.1.15,2013-01-17 13:55:00,
2013-01-17 09:00:00,64.4,61.4,29.95,SSE,154,3.0,3.0,90,0.00,,,0.00,Wunderground v.1.15,2013-01-17 14:00:00,
2013-01-17 09:10:00,65.1,61.8,29.95,SSE,151,3.0,4.0,89,0.00,,,0.00,Wunderground v.1.15,2013-01-17 14:10:00,
2013-01-17 09:20:00,65.4,61.8,29.94,SSE,156,6.0,6.0,88,0.00,,,0.00,Wunderground v.1.15,2013-01-17 14:20:00,
2013-01-17 09:25:00,65.7,62.0,29.94,SSE,147,6.0,7.0,88,0.00,,,0.00,Wunderground v.1.15,2013-01-17 14:25:00,
2013-01-17 09:35:00,66.5,62.2,29.94,SSE,152,6.0,6.0,86,0.00,,,0.00,Wunderground v.1.15,2013-01-17 14:35:00,
2013-01-17 09:40:00,67.0,62.0,29.94,SSE,152,6.0,8.0,84,0.00,,,0.00,Wunderground v.1.15,2013-01-17 14:40:00,
2013-01-17 09:49:00,67.2,61.9,29.94,SSE,164,6.0,7.0,83,0.00,,,0.00,Wunderground v.1.15,2013-01-17 14:49:00,
2013-01-17 09:55:00,67.4,61.7,29.93,SSE,160,6.0,7.0,82,0.00,,,0.00,Wunderground v.1.15,2013-01-17 14:55:00,
2013-01-17 10:04:00,67.9,61.5,29.93,South,171,7.0,8.0,80,0.00,,,0.00,Wunderground v.1.15,2013-01-17 15:04:00,
2013-01-17 10:14:00,68.4,61.6,29.93,SSE,162,8.0,11.0,79,0.00,,,0.00,Wunderground v.1.15,2013-01-17 15:14:00,
2013-01-17 10:20:00,68.4,61.6,29.93,SSE,152,8.0,8.0,79,0.00,,,0.00,Wunderground v.1.15,2013-01-17 15:20:00,
2013-01-17 10:29:00,68.7,61.6,29.92,SSE,154,8.0,8.0,78,0.00,,,0.00,Wunderground v.1.15,2013-01-17 15:29:00,
2013-01-17 10:34:00,68.9,61.4,29.92,SSE,166,8.0,8.0,77,0.00,,,0.00,Wunderground v.1.15,2013-01-17 15:34:00,
2013-01-17 10:44:00,69.2,61.3,29.91,SSE,168,8.0,11.0,76,0.00,,,0.00,Wunderground v.1.15,2013-01-17 15:44:00,
2013-01-17 10:54:00,69.3,60.7,29.91,SSE,155,9.0,11.0,74,0.00,,,0.00,Wunderground v.1.15,2013-01-17 15:54:00,
2013-01-17 11:04:00,69.5,60.8,29.90,SSE,147,8.0,9.0,74,0.00,,,0.00,Wunderground v.1.15,2013-01-17 16:04:00,
2013-01-17 11:14:00,69.1,60.8,29.90,SSE,154,9.0,9.0,75,0.00,,,0.00,Wunderground v.1.15,2013-01-17 16:14:00,
2013-01-17 11:19:00,68.9,61.0,29.89,SSE,162,9.0,9.0,76,0.00,,,0.00,Wunderground v.1.15,2013-01-17 16:19:00,
2013-01-17 11:25:00,69.0,60.7,29.89,SSE,157,9.0,10.0,75,0.00,,,0.00,Wunderground v.1.15,2013-01-17 16:25:00,
2013-01-17 11:30:00,69.0,60.7,29.88,SSE,157,10.0,11.0,75,0.00,,,0.00,Wunderground v.1.15,2013-01-17 16:30:00,
2013-01-17 11:35:00,69.3,61.0,29.88,South,169,10.0,11.0,75,0.00,,,0.00,Wunderground v.1.15,2013-01-17 16:35:00,
2013-01-17 11:45:00,69.4,61.9,29.87,SSE,150,10.0,10.0,77,0.00,,,0.00,Wunderground v.1.15,2013-01-17 16:45:00,
2013-01-17 11:55:00,69.3,62.1,29.86,SE,145,10.0,10.0,78,0.00,,,0.00,Wunderground v.1.15,2013-01-17 16:55:00,
2013-01-17 12:00:00,69.4,62.6,29.86,South,171,10.0,10.0,79,0.00,,,0.00,Wunderground v.1.15,2013-01-17 17:00:00,
2013-01-17 12:10:00,69.3,62.1,29.85,SSE,157,10.0,11.0,78,0.00,,,0.00,Wunderground v.1.15,2013-01-17 17:10:00,
2013-01-17 12:15:00,69.2,62.4,29.85,SSE,156,11.0,13.0,79,0.00,,,0.00,Wunderground v.1.15,2013-01-17 17:15:00,
2013-01-17 12:25:00,69.4,63.0,29.84,SE,137,12.0,12.0,80,0.00,,,0.00,Wunderground v.1.15,2013-01-17 17:25:00,
2013-01-17 12:35:00,69.5,63.4,29.83,SSE,156,12.0,12.0,81,0.00,,,0.00,Wunderground v.1.15,2013-01-17 17:35:00,
2013-01-17 12:40:00,69.3,63.2,29.83,SE,135,13.0,13.0,81,0.00,,,0.00,Wunderground v.1.15,2013-01-17 17:40:00,
2013-01-17 12:50:00,69.5,63.4,29.83,SSW,213,13.0,13.0,81,0.00,,,0.00,Wunderground v.1.15,2013-01-17 17:50:00,
2013-01-17 13:00:00,69.7,62.9,29.82,SSE,152,15.0,17.0,79,0.00,,,0.00,Wunderground v.1.15,2013-01-17 18:00:00,
2013-01-17 13:05:00,69.5,63.1,29.82,SSE,162,15.0,17.0,80,0.00,,,0.00,Wunderground v.1.15,2013-01-17 18:05:00,